^^
Station Historical Data
Daily Summary for June 5, 2017 Units:  English    Metric   Both
« Previous Day
Next Day »
Daily Weekly Monthly Yearly Custom
  High: Low: Average:
Temperature: 72.3 °F 58.4 °F 65.2 °F
Dew Point: 65.8 °F 57.0 °F 61.2 °F
Humidity: 96 % 77 % 87 %
Wind Speed: 7.8 mph 0.0 mph 0.7 mph
Wind Gust: 16.1 mph - -
Wind:- - SW
Pressure: 29.84 in 29.68 in -
Precipitation: 0.03 in    
Historical Graphs
 
 
Tabular Data for June 5, 2017
Time Temperature Dew Point Pressure Wind Wind Speed Wind Gust Humidity Rainfall Rate (Hourly) solar Conditions
00:03 59.7 °F 57.4 °F 29.83 in Calm     92 % 0.00 in 0.0 W/m2 RA
00:08 59.6 °F 57.3 °F 29.84 in Calm     92 % 0.00 in 0.0 W/m2 RA
00:13 59.6 °F 57.3 °F 29.84 in Calm     92 % 0.00 in 0.0 W/m2 OVC
00:18 59.6 °F 57.3 °F 29.84 in Calm     92 % 0.00 in 0.0 W/m2 OVC
00:23 59.6 °F 57.3 °F 29.83 in Calm     92 % 0.00 in 0.0 W/m2 OVC
00:28 59.6 °F 57.3 °F 29.84 in Calm     92 % 0.00 in 0.0 W/m2 OVC
00:33 59.6 °F 57.3 °F 29.84 in Calm     92 % 0.00 in 0.0 W/m2 OVC
00:38 59.6 °F 57.3 °F 29.83 in Calm     92 % 0.00 in 0.0 W/m2 RA
00:43 59.7 °F 57.4 °F 29.82 in Calm     92 % 0.00 in 0.0 W/m2 RA
00:48 59.6 °F 57.3 °F 29.82 in Calm     92 % 0.01 in 0.0 W/m2 RA
00:53 59.5 °F 57.5 °F 29.81 in Calm     93 % 0.01 in 0.0 W/m2 RA
00:58 59.6 °F 57.6 °F 29.81 in Calm     93 % 0.01 in 0.0 W/m2 OVC
01:03 59.5 °F 57.5 °F 29.81 in Calm   1.2 mph 93 % 0.02 in 0.0 W/m2 OVC
01:08 59.5 °F 57.5 °F 29.81 in Calm   1.2 mph 93 % 0.02 in 0.0 W/m2 OVC
01:13 59.4 °F 57.4 °F 29.81 in Calm     93 % 0.02 in 0.0 W/m2 OVC
01:18 59.5 °F 57.5 °F 29.80 in Calm     93 % 0.02 in 0.0 W/m2 OVC
01:23 59.4 °F 57.4 °F 29.80 in Calm     93 % 0.02 in 0.0 W/m2 OVC
01:28 59.3 °F 57.3 °F 29.80 in Calm     93 % 0.02 in 0.0 W/m2 OVC
01:33 59.3 °F 57.3 °F 29.80 in Calm     93 % 0.02 in 0.0 W/m2 OVC
01:39 59.3 °F 57.3 °F 29.79 in Calm     93 % 0.01 in 0.0 W/m2 OVC
01:44 59.4 °F 57.4 °F 29.79 in Calm     93 % 0.01 in 0.0 W/m2 OVC
01:49 59.3 °F 57.3 °F 29.79 in Calm     93 % 0.00 in 0.0 W/m2 OVC
01:54 59.2 °F 57.5 °F 29.79 in Calm     94 % 0.00 in 0.0 W/m2 OVC
01:59 59.2 °F 57.5 °F 29.79 in Calm     94 % 0.00 in 0.0 W/m2 OVC
02:04 59.1 °F 57.4 °F 29.78 in Calm     94 % 0.00 in 0.0 W/m2 OVC
02:09 59.1 °F 57.4 °F 29.78 in Calm     94 % 0.00 in 0.0 W/m2 OVC
02:14 59.1 °F 57.4 °F 29.78 in Calm     94 % 0.00 in 0.0 W/m2 OVC
02:19 59.2 °F 57.5 °F 29.78 in Calm     94 % 0.00 in 0.0 W/m2 OVC
02:24 59.2 °F 57.5 °F 29.78 in Calm     94 % 0.00 in 0.0 W/m2 OVC
02:29 59.1 °F 57.4 °F 29.79 in Calm     94 % 0.00 in 0.0 W/m2 OVC
02:34 58.9 °F 57.2 °F 29.78 in Calm     94 % 0.00 in 0.0 W/m2 OVC
02:39 59.1 °F 57.4 °F 29.78 in Calm     94 % 0.00 in 0.0 W/m2 OVC
02:45 59.0 °F 57.3 °F 29.78 in Calm     94 % 0.00 in 0.0 W/m2 OVC
02:50 59.0 °F 57.3 °F 29.78 in Calm     94 % 0.00 in 0.0 W/m2 OVC
02:55 58.9 °F 57.2 °F 29.78 in Calm     94 % 0.00 in 0.0 W/m2 OVC
03:00 58.9 °F 57.2 °F 29.77 in Calm     94 % 0.00 in 0.0 W/m2 OVC
03:05 58.9 °F 57.2 °F 29.77 in Calm     94 % 0.00 in 0.0 W/m2 -RA
03:10 58.9 °F 57.2 °F 29.77 in Calm     94 % 0.00 in 0.0 W/m2 -RA
03:15 58.9 °F 57.2 °F 29.77 in Calm     94 % 0.00 in 0.0 W/m2 -RA
03:16 59.0 °F 57.3 °F 29.77 in Calm     94 % 0.00 in 0.0 W/m2 -RA
03:21 59.0 °F 57.3 °F 29.77 in Calm     94 % 0.00 in 0.0 W/m2 -RA
03:26 58.9 °F 57.2 °F 29.77 in Calm     94 % 0.00 in 0.0 W/m2 -RA
03:31 58.9 °F 57.2 °F 29.77 in Calm   1.2 mph 94 % 0.00 in 0.0 W/m2 -RA
03:36 58.9 °F 57.2 °F 29.77 in Calm   1.2 mph 94 % 0.00 in 0.0 W/m2 -RA
03:41 58.9 °F 57.2 °F 29.77 in Calm   1.2 mph 94 % 0.00 in 0.0 W/m2 -RA
03:46 58.9 °F 57.2 °F 29.77 in Calm     94 % 0.00 in 0.0 W/m2 -RA
03:51 58.9 °F 57.2 °F 29.77 in Calm     94 % 0.00 in 0.0 W/m2 -RA
03:57 59.0 °F 57.6 °F 29.77 in Calm     95 % 0.00 in 0.0 W/m2 -RA
04:02 59.0 °F 57.6 °F 29.77 in Calm     95 % 0.00 in 0.0 W/m2 OVC
04:07 58.9 °F 57.2 °F 29.77 in Calm     94 % 0.00 in 0.0 W/m2 OVC
04:12 58.9 °F 57.5 °F 29.77 in Calm     95 % 0.00 in 0.0 W/m2 OVC
04:17 58.9 °F 57.5 °F 29.76 in Calm     95 % 0.00 in 0.0 W/m2 OVC
04:22 58.8 °F 57.1 °F 29.76 in Calm     94 % 0.00 in 0.0 W/m2 OVC
04:27 58.6 °F 57.2 °F 29.76 in Calm     95 % 0.00 in 0.0 W/m2 OVC
04:32 58.6 °F 57.2 °F 29.76 in Calm     95 % 0.00 in 0.0 W/m2 OVC
04:37 58.8 °F 57.4 °F 29.75 in Calm     95 % 0.00 in 0.0 W/m2 BKN
04:42 58.9 °F 57.5 °F 29.76 in Calm     95 % 0.00 in 0.0 W/m2 BKN
04:47 58.9 °F 57.5 °F 29.76 in Calm     95 % 0.00 in 0.0 W/m2 BKN
04:52 58.9 °F 57.5 °F 29.76 in Calm     95 % 0.00 in 0.0 W/m2 BKN
04:57 58.9 °F 57.5 °F 29.76 in Calm     95 % 0.00 in 0.0 W/m2 BKN
05:02 58.8 °F 57.4 °F 29.76 in Calm     95 % 0.00 in 0.0 W/m2 FEW
05:07 58.7 °F 57.3 °F 29.75 in Calm     95 % 0.00 in 0.0 W/m2 FEW
05:12 58.7 °F 57.3 °F 29.75 in Calm     95 % 0.00 in 0.0 W/m2 FEW
05:17 58.7 °F 57.3 °F 29.75 in Calm     95 % 0.00 in 0.0 W/m2 FEW
05:22 58.7 °F 57.3 °F 29.75 in Calm     95 % 0.00 in 0.0 W/m2 FEW
05:27 58.6 °F 57.2 °F 29.76 in Calm     95 % 0.00 in 0.0 W/m2 FEW
05:32 58.5 °F 57.1 °F 29.76 in Calm     95 % 0.00 in 0.0 W/m2 FEW
05:37 58.5 °F 57.1 °F 29.76 in Calm     95 % 0.00 in 0.0 W/m2 FEW
05:42 58.4 °F 57.0 °F 29.76 in Calm     95 % 0.00 in 0.0 W/m2 FEW
05:47 58.4 °F 57.0 °F 29.76 in Calm     95 % 0.00 in 5.0 W/m2 FEW
05:50 58.4 °F 57.0 °F 29.76 in Calm     95 % 0.00 in 7.0 W/m2 FEW
05:55 58.6 °F 57.2 °F 29.76 in Calm     95 % 0.00 in 9.0 W/m2 FEW
06:00 58.6 °F 57.2 °F 29.76 in Calm     95 % 0.00 in 11.0 W/m2 FEW
06:05 58.5 °F 57.1 °F 29.76 in Calm     95 % 0.00 in 14.0 W/m2 FEW
06:10 58.6 °F 57.2 °F 29.76 in Calm     95 % 0.00 in 18.0 W/m2 FEW
06:15 58.6 °F 57.2 °F 29.76 in Calm     95 % 0.00 in 23.0 W/m2 FEW
06:16 58.6 °F 57.2 °F 29.76 in Calm     95 % 0.00 in 25.0 W/m2 FEW
06:21 58.5 °F 57.1 °F 29.76 in Calm     95 % 0.00 in 28.0 W/m2 FEW
06:26 58.5 °F 57.1 °F 29.76 in Calm     95 % 0.00 in 30.0 W/m2 FEW
06:31 58.5 °F 57.1 °F 29.76 in Calm     95 % 0.00 in 28.0 W/m2 FEW
06:36 58.4 °F 57.0 °F 29.76 in Calm     95 % 0.00 in 32.0 W/m2 FEW
06:41 58.6 °F 57.2 °F 29.76 in Calm     95 % 0.00 in 42.0 W/m2 FEW
06:46 58.5 °F 57.1 °F 29.75 in Calm     95 % 0.00 in 51.0 W/m2 FEW
06:51 58.6 °F 57.5 °F 29.75 in Calm     96 % 0.00 in 58.0 W/m2 SCT
06:56 58.8 °F 57.7 °F 29.75 in Calm     96 % 0.00 in 69.0 W/m2 SCT
07:01 59.1 °F 58.0 °F 29.75 in Calm     96 % 0.00 in 76.0 W/m2 BKN
07:06 59.2 °F 58.1 °F 29.76 in Calm     96 % 0.00 in 88.0 W/m2 BKN
07:11 59.1 °F 57.7 °F 29.75 in Calm     95 % 0.00 in 102.0 W/m2 BKN
07:17 59.2 °F 57.8 °F 29.75 in Calm     95 % 0.00 in 118.0 W/m2 BKN
07:22 59.6 °F 58.5 °F 29.75 in Calm     96 % 0.00 in 134.0 W/m2 SCT
07:27 59.7 °F 58.3 °F 29.76 in Calm     95 % 0.00 in 130.0 W/m2 SCT
07:32 59.8 °F 58.4 °F 29.75 in Calm     95 % 0.00 in 121.0 W/m2 SCT
07:37 59.8 °F 58.4 °F 29.76 in Calm     95 % 0.00 in 114.0 W/m2 SCT
07:42 59.9 °F 58.5 °F 29.75 in Calm     95 % 0.00 in 107.0 W/m2 SCT
07:47 60.3 °F 58.9 °F 29.76 in Calm     95 % 0.00 in 113.0 W/m2 SCT
07:52 60.3 °F 58.9 °F 29.75 in Calm     95 % 0.00 in 132.0 W/m2 SCT
07:57 60.5 °F 59.1 °F 29.76 in Calm     95 % 0.00 in 160.0 W/m2 SCT
07:58 60.5 °F 59.1 °F 29.76 in Calm     95 % 0.00 in 160.0 W/m2 SCT
08:02 60.7 °F 59.3 °F 29.76 in Calm     95 % 0.00 in 162.0 W/m2 SCT
08:07 60.8 °F 59.4 °F 29.76 in Calm     95 % 0.00 in 169.0 W/m2 SCT
08:12 60.9 °F 59.5 °F 29.76 in Calm     95 % 0.00 in 200.0 W/m2 SCT
08:17 61.2 °F 59.5 °F 29.76 in Calm     94 % 0.00 in 214.0 W/m2 SCT
08:22 61.5 °F 59.8 °F 29.76 in Calm     94 % 0.00 in 211.0 W/m2 SCT
08:27 61.7 °F 60.0 °F 29.76 in Calm     94 % 0.00 in 211.0 W/m2 SCT
08:32 61.8 °F 59.8 °F 29.76 in Calm   1.2 mph 93 % 0.00 in 211.0 W/m2 SCT
08:37 62.1 °F 60.1 °F 29.76 in Calm   1.2 mph 93 % 0.00 in 218.0 W/m2 SCT
08:42 62.1 °F 60.1 °F 29.76 in Calm   1.2 mph 93 % 0.00 in 216.0 W/m2 SCT
08:47 62.3 °F 60.2 °F 29.76 in Calm   1.2 mph 93 % 0.00 in 216.0 W/m2 SCT
08:52 62.4 °F 60.0 °F 29.76 in West 0.1 mph 3.5 mph 92 % 0.00 in 216.0 W/m2 SCT
08:57 62.5 °F 60.1 °F 29.76 in Calm   3.5 mph 92 % 0.00 in 220.0 W/m2 SCT
09:02 62.8 °F 60.4 °F 29.76 in Calm   1.2 mph 92 % 0.00 in 230.0 W/m2 SCT
09:07 62.9 °F 60.2 °F 29.76 in Calm     91 % 0.00 in 234.0 W/m2 SCT
09:12 63.2 °F 60.5 °F 29.76 in Calm     91 % 0.00 in 244.0 W/m2 SCT
09:18 63.6 °F 60.6 °F 29.76 in West 0.1 mph   90 % 0.00 in 260.0 W/m2 SCT
09:23 63.8 °F 60.8 °F 29.76 in Calm   1.2 mph 90 % 0.00 in 260.0 W/m2 SCT
09:28 63.9 °F 60.9 °F 29.76 in Calm   1.2 mph 90 % 0.00 in 265.0 W/m2 SCT
09:33 64.2 °F 60.9 °F 29.76 in Calm   1.2 mph 89 % 0.00 in 278.0 W/m2 SCT
09:38 64.2 °F 60.9 °F 29.76 in Calm   1.2 mph 89 % 0.00 in 304.0 W/m2 SCT
09:43 64.4 °F 61.4 °F 29.76 in Calm   1.2 mph 90 % 0.00 in 346.0 W/m2 SCT
09:48 64.8 °F 61.5 °F 29.76 in Calm     89 % 0.00 in 338.0 W/m2 SCT
09:53 64.7 °F 61.1 °F 29.76 in Calm     88 % 0.00 in 311.0 W/m2 FEW
09:58 65.4 °F 61.8 °F 29.76 in Calm   1.2 mph 88 % 0.00 in 294.0 W/m2 FEW
10:03 65.7 °F 61.7 °F 29.75 in Calm   1.2 mph 87 % 0.00 in 292.0 W/m2 CLR
10:08 65.9 °F 61.6 °F 29.76 in Calm   3.5 mph 86 % 0.00 in 297.0 W/m2 CLR
10:13 66.2 °F 61.9 °F 29.76 in Calm   3.5 mph 86 % 0.00 in 304.0 W/m2 CLR
10:18 66.3 °F 62.0 °F 29.75 in Calm   3.5 mph 86 % 0.00 in 306.0 W/m2 RA
10:23 66.5 °F 62.2 °F 29.75 in Calm   3.5 mph 86 % 0.00 in 320.0 W/m2 CLR
10:28 66.9 °F 62.6 °F 29.75 in Calm   1.2 mph 86 % 0.00 in 320.0 W/m2 CLR
10:33 67.3 °F 62.6 °F 29.75 in Calm   1.2 mph 85 % 0.00 in 322.0 W/m2 CLR
10:38 67.4 °F 62.4 °F 29.76 in Calm   1.2 mph 84 % 0.00 in 325.0 W/m2 CLR
10:43 67.5 °F 62.5 °F 29.76 in Calm   1.2 mph 84 % 0.00 in 348.0 W/m2 CLR
10:48 67.8 °F 62.8 °F 29.75 in Calm   1.2 mph 84 % 0.00 in 352.0 W/m2 CLR
10:53 67.8 °F 62.4 °F 29.75 in West 0.1 mph 1.2 mph 83 % 0.00 in 348.0 W/m2 CLR
10:58 68.3 °F 62.6 °F 29.75 in Calm   1.2 mph 82 % 0.00 in 352.0 W/m2 CLR
11:03 68.6 °F 62.9 °F 29.75 in SW 0.1 mph 1.2 mph 82 % 0.00 in 295.0 W/m2 CLR
11:08 68.6 °F 62.9 °F 29.75 in Calm   1.2 mph 82 % 0.00 in 278.0 W/m2 CLR
11:13 68.6 °F 62.9 °F 29.75 in SW 1.0 mph 4.6 mph 82 % 0.00 in 276.0 W/m2 CLR
11:18 68.8 °F 63.1 °F 29.75 in Calm   4.6 mph 82 % 0.00 in 299.0 W/m2 CLR
11:23 68.9 °F 63.2 °F 29.75 in SW 3.6 mph 4.6 mph 82 % 0.00 in 294.0 W/m2 CLR
11:28 69.1 °F 63.4 °F 29.75 in Calm   4.6 mph 82 % 0.00 in 315.0 W/m2 CLR
11:33 69.5 °F 63.8 °F 29.75 in Calm   4.6 mph 82 % 0.00 in 353.0 W/m2 CLR
11:38 69.5 °F 63.4 °F 29.75 in SW 0.9 mph 3.5 mph 81 % 0.00 in 346.0 W/m2 CLR
11:43 69.6 °F 63.5 °F 29.75 in Calm   3.5 mph 81 % 0.00 in 348.0 W/m2 CLR
11:48 70.0 °F 63.9 °F 29.74 in SW 1.2 mph 3.5 mph 81 % 0.00 in 367.0 W/m2 CLR
11:53 70.4 °F 64.3 °F 29.75 in SSW 1.8 mph 3.5 mph 81 % 0.00 in 394.0 W/m2 CLR
11:58 70.4 °F 64.3 °F 29.75 in SSW 0.1 mph 4.6 mph 81 % 0.00 in 443.0 W/m2 CLR
12:03 70.5 °F 64.7 °F 29.75 in SW 2.3 mph 4.6 mph 82 % 0.00 in 508.0 W/m2 SCT
12:09 70.9 °F 65.1 °F 29.75 in WSW 0.7 mph 5.8 mph 82 % 0.00 in 438.0 W/m2 SCT
12:14 70.9 °F 65.1 °F 29.75 in SW 0.1 mph 5.8 mph 82 % 0.00 in 374.0 W/m2 SCT
12:19 71.1 °F 65.3 °F 29.75 in Calm   4.6 mph 82 % 0.00 in 438.0 W/m2 SCT
12:24 71.5 °F 65.0 °F 29.75 in Calm   3.5 mph 80 % 0.00 in 517.0 W/m2 SCT
12:29 71.8 °F 65.3 °F 29.75 in SW 0.7 mph 3.5 mph 80 % 0.00 in 468.0 W/m2 SCT
12:34 71.9 °F 65.0 °F 29.75 in Calm   5.8 mph 79 % 0.00 in 315.0 W/m2 SCT
12:39 71.9 °F 65.4 °F 29.75 in West 2.7 mph 5.8 mph 80 % 0.00 in 257.0 W/m2 SCT
12:44 72.1 °F 65.2 °F 29.75 in West 2.6 mph 5.8 mph 79 % 0.00 in 309.0 W/m2 SCT
12:49 72.3 °F 65.8 °F 29.75 in WSW 1.0 mph 5.8 mph 80 % 0.00 in 343.0 W/m2 SCT
12:54 72.1 °F 65.6 °F 29.75 in SSW 1.6 mph 4.6 mph 80 % 0.00 in 313.0 W/m2 SCT
12:59 72.3 °F 65.8 °F 29.75 in SSW 3.7 mph 10.4 mph 80 % 0.00 in 278.0 W/m2 SCT
13:04 72.0 °F 65.5 °F 29.75 in WSW 4.7 mph 10.4 mph 80 % 0.00 in 202.0 W/m2 OVC
13:09 71.6 °F 65.5 °F 29.75 in SW 3.7 mph 9.2 mph 81 % 0.00 in 186.0 W/m2 OVC
13:14 71.2 °F 65.1 °F 29.75 in WSW 4.6 mph 8.1 mph 81 % 0.00 in 216.0 W/m2 OVC
13:19 71.2 °F 64.7 °F 29.75 in South 5.5 mph 8.1 mph 80 % 0.00 in 274.0 W/m2 OVC
13:24 71.1 °F 64.6 °F 29.75 in SW 4.4 mph 8.1 mph 80 % 0.00 in 218.0 W/m2 OVC
13:29 71.1 °F 64.6 °F 29.75 in SSW 1.0 mph 8.1 mph 80 % 0.00 in 185.0 W/m2 OVC
13:34 70.9 °F 64.1 °F 29.75 in SSW 1.8 mph 9.2 mph 79 % 0.00 in 178.0 W/m2 OVC
13:39 71.0 °F 63.8 °F 29.75 in SSW 0.9 mph 9.2 mph 78 % 0.00 in 149.0 W/m2 OVC
13:44 70.9 °F 63.7 °F 29.75 in WSW 5.4 mph 9.2 mph 78 % 0.00 in 137.0 W/m2 OVC
13:49 70.8 °F 63.6 °F 29.75 in SW 4.2 mph 8.1 mph 78 % 0.00 in 113.0 W/m2 OVC
13:52 70.7 °F 63.9 °F 29.75 in Calm   8.1 mph 79 % 0.00 in 109.0 W/m2 SCT
13:57 70.5 °F 63.3 °F 29.75 in SW 7.4 mph 11.5 mph 78 % 0.00 in 104.0 W/m2 SCT
14:02 69.8 °F 62.6 °F 29.75 in SW 6.2 mph 16.1 mph 78 % 0.00 in 111.0 W/m2 SCT
14:07 69.2 °F 62.8 °F 29.75 in SSW 0.4 mph 16.1 mph 80 % 0.01 in 144.0 W/m2 RA
14:12 68.9 °F 62.8 °F 29.75 in SW 4.7 mph 11.5 mph 81 % 0.01 in 160.0 W/m2 RA
14:17 69.0 °F 63.3 °F 29.75 in SSW 5.3 mph 9.2 mph 82 % 0.01 in 197.0 W/m2 SCT
14:22 68.9 °F 63.2 °F 29.74 in SSW 3.6 mph 9.2 mph 82 % 0.01 in 234.0 W/m2 SCT
14:27 69.1 °F 63.4 °F 29.74 in SW 4.2 mph 8.1 mph 82 % 0.01 in 274.0 W/m2 SCT
14:32 69.1 °F 63.7 °F 29.74 in SSW 7.7 mph 11.5 mph 83 % 0.01 in 287.0 W/m2 SCT
14:37 68.9 °F 63.5 °F 29.73 in SW 4.3 mph 11.5 mph 83 % 0.01 in 334.0 W/m2 SCT
14:42 69.1 °F 64.1 °F 29.73 in WSW 0.3 mph 11.5 mph 84 % 0.01 in 320.0 W/m2 SCT
14:47 69.2 °F 63.5 °F 29.73 in WSW 6.7 mph 10.4 mph 82 % 0.01 in 320.0 W/m2 SCT
14:52 69.3 °F 63.6 °F 29.73 in WSW 3.0 mph 10.4 mph 82 % 0.01 in 243.0 W/m2 SCT
14:57 69.3 °F 63.6 °F 29.73 in SW 4.0 mph 11.5 mph 82 % 0.01 in 255.0 W/m2 SCT
15:02 69.4 °F 63.7 °F 29.73 in Calm   11.5 mph 82 % 0.01 in 272.0 W/m2 BKN
15:07 69.5 °F 63.8 °F 29.73 in SSW 3.2 mph 11.5 mph 82 % 0.00 in 302.0 W/m2 BKN
15:12 69.5 °F 63.4 °F 29.73 in SSW 4.5 mph 11.5 mph 81 % 0.00 in 299.0 W/m2 BKN
15:17 69.7 °F 63.6 °F 29.72 in SSW 0.2 mph 11.5 mph 81 % 0.00 in 306.0 W/m2 BKN
15:22 70.0 °F 63.5 °F 29.72 in SSW 3.7 mph 8.1 mph 80 % 0.00 in 287.0 W/m2 BKN
15:27 70.2 °F 63.4 °F 29.72 in SW 3.2 mph 8.1 mph 79 % 0.00 in 283.0 W/m2 BKN
15:32 70.3 °F 63.1 °F 29.72 in WSW 5.4 mph 11.5 mph 78 % 0.00 in 294.0 W/m2 BKN
15:37 70.4 °F 63.2 °F 29.71 in West 1.9 mph 11.5 mph 78 % 0.00 in 297.0 W/m2 BKN
15:42 70.5 °F 63.3 °F 29.71 in WSW 3.4 mph 11.5 mph 78 % 0.00 in 309.0 W/m2 BKN
15:47 70.6 °F 63.4 °F 29.71 in SW 7.8 mph 11.5 mph 78 % 0.00 in 306.0 W/m2 BKN
15:52 70.2 °F 63.0 °F 29.70 in SSW 5.5 mph 11.5 mph 78 % 0.00 in 334.0 W/m2 BKN
15:58 70.3 °F 63.1 °F 29.69 in South 5.7 mph 11.5 mph 78 % 0.00 in 332.0 W/m2 BKN
16:03 70.2 °F 63.0 °F 29.70 in SW 1.0 mph 10.4 mph 78 % 0.00 in 323.0 W/m2 CLR
16:08 70.6 °F 63.0 °F 29.70 in South 5.3 mph 9.2 mph 77 % 0.00 in 367.0 W/m2 CLR
16:13 70.7 °F 63.1 °F 29.69 in SSW 5.1 mph 10.4 mph 77 % 0.00 in 396.0 W/m2 CLR
16:18 70.6 °F 63.0 °F 29.69 in SSW 4.1 mph 10.4 mph 77 % 0.00 in 362.0 W/m2 CLR
16:23 70.6 °F 63.0 °F 29.69 in SW 2.0 mph 9.2 mph 77 % 0.00 in 283.0 W/m2 CLR
16:28 70.7 °F 63.1 °F 29.69 in West 1.7 mph 9.2 mph 77 % 0.00 in 237.0 W/m2 CLR
16:33 70.6 °F 63.0 °F 29.69 in Calm   9.2 mph 77 % 0.00 in 227.0 W/m2 CLR
16:38 70.6 °F 63.0 °F 29.70 in West 2.0 mph 6.9 mph 77 % 0.00 in 251.0 W/m2 CLR
16:43 70.7 °F 63.1 °F 29.70 in Calm   3.5 mph 77 % 0.00 in 258.0 W/m2 CLR
16:48 70.8 °F 63.2 °F 29.70 in WSW 2.1 mph 8.1 mph 77 % 0.00 in 278.0 W/m2 CLR
16:53 70.8 °F 63.6 °F 29.69 in Calm   8.1 mph 78 % 0.00 in 269.0 W/m2 CLR
16:58 71.1 °F 63.5 °F 29.69 in WSW 2.9 mph 8.1 mph 77 % 0.00 in 260.0 W/m2 CLR
17:03 70.9 °F 63.3 °F 29.69 in SSW 3.0 mph 5.8 mph 77 % 0.00 in 271.0 W/m2 BKN
17:08 70.9 °F 63.3 °F 29.69 in SSW 1.1 mph 8.1 mph 77 % 0.00 in 381.0 W/m2 BKN
17:13 71.1 °F 63.5 °F 29.69 in SW 2.3 mph 8.1 mph 77 % 0.00 in 295.0 W/m2 BKN
17:18 71.2 °F 63.6 °F 29.69 in Calm   6.9 mph 77 % 0.00 in 267.0 W/m2 BKN
17:23 71.3 °F 63.7 °F 29.69 in WSW 3.2 mph 6.9 mph 77 % 0.00 in 258.0 W/m2 BKN
17:28 71.2 °F 63.6 °F 29.69 in SW 3.0 mph 6.9 mph 77 % 0.00 in 234.0 W/m2 BKN
17:33 71.2 °F 63.6 °F 29.68 in SSW 1.4 mph 6.9 mph 77 % 0.00 in 181.0 W/m2 BKN
17:35 71.2 °F 63.6 °F 29.68 in Calm   5.0 mph 77 % 0.00 in 169.0 W/m2 BKN
17:40 71.2 °F 63.6 °F 29.68 in SSW 3.0 mph 5.0 mph 77 % 0.00 in 148.0 W/m2 BKN
17:45 70.9 °F 63.3 °F 29.68 in SW 0.6 mph 5.8 mph 77 % 0.00 in 139.0 W/m2 BKN
17:50 71.0 °F 63.8 °F 29.68 in Calm   4.0 mph 78 % 0.00 in 123.0 W/m2 BKN
17:55 71.0 °F 63.4 °F 29.68 in SW 3.0 mph 6.0 mph 77 % 0.00 in 105.0 W/m2 BKN
18:00 71.1 °F 63.5 °F 29.68 in SW 0.1 mph 5.8 mph 77 % 0.00 in 102.0 W/m2 BKN
18:05 70.9 °F 63.3 °F 29.68 in Calm     77 % 0.00 in 104.0 W/m2 CLR
18:10 71.0 °F 63.4 °F 29.68 in Calm     77 % 0.00 in 91.0 W/m2 CLR
18:15 71.0 °F 63.4 °F 29.68 in SW 0.3 mph   77 % 0.00 in 90.0 W/m2 CLR
18:20 70.8 °F 63.2 °F 29.68 in Calm   4.0 mph 77 % 0.00 in 86.0 W/m2 CLR
18:25 70.7 °F 63.1 °F 29.68 in Calm   3.0 mph 77 % 0.00 in 74.0 W/m2 CLR
18:30 70.7 °F 63.5 °F 29.68 in South 0.9 mph 4.6 mph 78 % 0.00 in 69.0 W/m2 CLR
18:35 70.7 °F 63.5 °F 29.68 in Calm   4.6 mph 78 % 0.00 in 63.0 W/m2 CLR
18:40 70.7 °F 63.5 °F 29.68 in Calm   3.5 mph 78 % 0.00 in 65.0 W/m2 CLR
18:45 70.7 °F 63.5 °F 29.68 in Calm   4.6 mph 78 % 0.00 in 56.0 W/m2 CLR
18:50 70.6 °F 63.4 °F 29.69 in SSW 1.0 mph 4.6 mph 78 % 0.00 in 69.0 W/m2 CLR
18:55 70.5 °F 63.3 °F 29.69 in Calm   5.8 mph 78 % 0.00 in 69.0 W/m2 CLR
19:00 70.3 °F 63.5 °F 29.69 in Calm   5.8 mph 79 % 0.00 in 63.0 W/m2 CLR
19:04 70.2 °F 63.4 °F 29.69 in Calm   2.3 mph 79 % 0.00 in 54.0 W/m2 FEW
19:09 70.1 °F 63.6 °F 29.69 in Calm   6.9 mph 80 % 0.00 in 47.0 W/m2 FEW
19:14 69.9 °F 63.4 °F 29.69 in South 0.6 mph 6.9 mph 80 % 0.00 in 37.0 W/m2 FEW
19:19 69.8 °F 63.7 °F 29.69 in South 0.2 mph 3.5 mph 81 % 0.00 in 26.0 W/m2 FEW
19:24 69.7 °F 63.6 °F 29.69 in South 0.3 mph 3.5 mph 81 % 0.00 in 25.0 W/m2 FEW
19:29 69.6 °F 63.9 °F 29.69 in South 0.1 mph 3.5 mph 82 % 0.00 in 26.0 W/m2 FEW
19:34 69.6 °F 63.9 °F 29.69 in Calm   3.5 mph 82 % 0.00 in 23.0 W/m2 FEW
19:39 69.6 °F 63.9 °F 29.69 in Calm   1.2 mph 82 % 0.00 in 16.0 W/m2 FEW
19:44 69.5 °F 63.8 °F 29.69 in Calm     82 % 0.00 in 14.0 W/m2 FEW
19:49 69.3 °F 63.6 °F 29.68 in Calm     82 % 0.00 in 14.0 W/m2 FEW
19:54 69.2 °F 63.5 °F 29.68 in Calm     82 % 0.00 in 12.0 W/m2 FEW
19:59 69.0 °F 63.3 °F 29.68 in Calm     82 % 0.00 in 14.0 W/m2 FEW
20:04 69.0 °F 63.6 °F 29.68 in Calm     83 % 0.00 in 14.0 W/m2 BKN
20:09 68.9 °F 63.5 °F 29.69 in Calm     83 % 0.00 in 11.0 W/m2 BKN
20:14 68.8 °F 63.4 °F 29.68 in Calm     83 % 0.00 in 9.0 W/m2 BKN
20:19 68.6 °F 63.6 °F 29.68 in Calm     84 % 0.00 in 7.0 W/m2 BKN
20:24 68.6 °F 63.6 °F 29.69 in South 0.4 mph 1.2 mph 84 % 0.00 in 0.0 W/m2 BKN
20:29 68.6 °F 63.6 °F 29.68 in Calm   2.3 mph 84 % 0.00 in 0.0 W/m2 BKN
20:34 68.4 °F 63.4 °F 29.68 in Calm   2.3 mph 84 % 0.00 in 0.0 W/m2 BKN
20:39 68.3 °F 63.6 °F 29.68 in Calm     85 % 0.00 in 0.0 W/m2 BKN
20:44 68.1 °F 63.4 °F 29.68 in Calm     85 % 0.00 in 0.0 W/m2 BKN
20:49 68.0 °F 63.3 °F 29.68 in Calm   1.2 mph 85 % 0.00 in 0.0 W/m2 BKN
20:54 67.9 °F 63.6 °F 29.68 in Calm   1.2 mph 86 % 0.00 in 0.0 W/m2 BKN
20:59 67.8 °F 63.5 °F 29.68 in Calm   1.2 mph 86 % 0.00 in 0.0 W/m2 BKN
21:04 67.8 °F 63.5 °F 29.68 in Calm     86 % 0.00 in 0.0 W/m2 CLR
21:09 67.7 °F 63.4 °F 29.68 in Calm     86 % 0.00 in 0.0 W/m2 CLR
21:14 67.7 °F 63.4 °F 29.68 in Calm     86 % 0.00 in 0.0 W/m2 CLR
21:19 67.7 °F 63.4 °F 29.68 in Calm     86 % 0.00 in 0.0 W/m2 CLR
21:24 67.6 °F 63.6 °F 29.69 in Calm     87 % 0.00 in 0.0 W/m2 CLR
21:29 67.4 °F 63.4 °F 29.68 in Calm     87 % 0.00 in 0.0 W/m2 CLR
21:34 67.4 °F 63.4 °F 29.69 in Calm     87 % 0.00 in 0.0 W/m2 CLR
21:39 67.4 °F 63.4 °F 29.69 in Calm     87 % 0.00 in 0.0 W/m2 CLR
21:44 67.2 °F 63.2 °F 29.69 in Calm     87 % 0.00 in 0.0 W/m2 CLR
21:49 66.9 °F 62.9 °F 29.69 in Calm     87 % 0.00 in 0.0 W/m2 CLR
21:54 66.7 °F 63.0 °F 29.69 in Calm     88 % 0.00 in 0.0 W/m2 CLR
22:00 66.5 °F 62.8 °F 29.69 in Calm     88 % 0.00 in 0.0 W/m2 CLR
22:05 66.3 °F 63.0 °F 29.69 in Calm     89 % 0.00 in 0.0 W/m2 SCT
22:10 66.3 °F 63.0 °F 29.68 in Calm     89 % 0.00 in 0.0 W/m2 SCT
22:15 66.3 °F 63.0 °F 29.68 in Calm     89 % 0.00 in 0.0 W/m2 SCT
22:20 66.4 °F 63.4 °F 29.68 in Calm     90 % 0.00 in 0.0 W/m2 SCT
22:25 66.4 °F 63.1 °F 29.69 in Calm     89 % 0.00 in 0.0 W/m2 SCT
22:30 66.5 °F 63.5 °F 29.69 in Calm     90 % 0.00 in 0.0 W/m2 SCT
22:35 66.5 °F 63.2 °F 29.68 in Calm     89 % 0.00 in 0.0 W/m2 SCT
22:40 66.3 °F 63.3 °F 29.68 in Calm     90 % 0.00 in 0.0 W/m2 SCT
22:45 66.3 °F 63.3 °F 29.69 in Calm     90 % 0.00 in 0.0 W/m2 SCT
22:50 66.2 °F 63.2 °F 29.69 in Calm     90 % 0.00 in 0.0 W/m2 SCT
22:55 66.1 °F 63.1 °F 29.69 in Calm     90 % 0.00 in 0.0 W/m2 SCT
23:00 66.0 °F 63.0 °F 29.69 in Calm     90 % 0.00 in 0.0 W/m2 SCT
23:05 65.9 °F 62.9 °F 29.69 in Calm     90 % 0.00 in 0.0 W/m2 OVC
23:10 65.8 °F 63.1 °F 29.69 in Calm     91 % 0.00 in 0.0 W/m2 OVC
23:15 65.6 °F 62.9 °F 29.69 in Calm     91 % 0.00 in 0.0 W/m2 OVC
23:20 65.4 °F 62.7 °F 29.68 in Calm     91 % 0.00 in 0.0 W/m2 OVC
23:25 65.4 °F 62.7 °F 29.68 in Calm     91 % 0.00 in 0.0 W/m2 OVC
23:30 65.4 °F 63.0 °F 29.68 in Calm     92 % 0.00 in 0.0 W/m2 OVC
23:35 65.5 °F 63.1 °F 29.68 in Calm     92 % 0.00 in 0.0 W/m2 OVC
23:40 65.6 °F 63.2 °F 29.68 in Calm     92 % 0.00 in 0.0 W/m2 OVC
23:45 65.5 °F 63.1 °F 29.68 in Calm     92 % 0.00 in 0.0 W/m2 OVC
23:50 65.5 °F 63.1 °F 29.68 in Calm     92 % 0.00 in 0.0 W/m2 OVC
23:55 65.6 °F 63.2 °F 29.68 in Calm     92 % 0.00 in 0.0 W/m2 OVC
Air Products Campus Weather
Compliments of Weather Underground - 3.5 mb